createdAt,value
2018-08-17T05:21:29.013Z,99.90
2018-08-17T05:23:57.260Z,99.90
2018-08-17T05:26:25.530Z,99.60
2018-08-17T05:28:53.779Z,99.70
2018-08-17T05:31:22.040Z,99.80
2018-08-17T05:33:50.283Z,99.30
2018-08-17T05:36:18.564Z,99.20
2018-08-17T05:38:46.818Z,99.20
2018-08-17T05:41:15.089Z,99.30
2018-08-17T05:43:43.331Z,98.70
2018-08-17T05:46:11.613Z,98.40
2018-08-17T05:48:39.839Z,98.70
2018-08-17T05:51:08.081Z,98.60
2018-08-17T05:53:36.325Z,98.00
2018-08-17T05:56:04.599Z,98.00
2018-08-17T05:58:32.843Z,97.90
2018-08-17T06:01:01.108Z,97.20
2018-08-17T06:03:29.364Z,96.80
2018-08-17T06:05:57.659Z,96.90
2018-08-17T06:08:32.236Z,97.00
2018-08-17T06:11:00.559Z,96.30
2018-08-17T06:13:28.805Z,94.90
2018-08-17T06:15:57.081Z,95.10
2018-08-17T06:18:25.378Z,95.20
2018-08-17T06:20:53.628Z,93.90
2018-08-17T06:23:21.888Z,93.10
2018-08-17T06:25:50.128Z,93.80
2018-08-17T06:28:18.392Z,93.50
2018-08-17T06:30:46.654Z,91.90
2018-08-17T06:33:14.920Z,91.80
2018-08-17T06:35:43.176Z,91.10
2018-08-17T06:38:11.460Z,90.80
2018-08-17T06:40:39.720Z,91.70
2018-08-17T06:43:08.015Z,90.50
2018-08-17T06:45:36.251Z,89.80
2018-08-17T06:48:04.484Z,89.30
2018-08-17T06:50:32.758Z,90.60
2018-08-17T06:53:01.042Z,90.20
2018-08-17T06:55:29.285Z,87.20
2018-08-17T06:57:57.565Z,87.20
2018-08-17T07:00:25.826Z,86.40
2018-08-17T07:02:54.125Z,86.00
2018-08-17T07:05:22.382Z,86.50
2018-08-17T07:07:50.660Z,83.20
2018-08-17T07:10:18.937Z,82.10
2018-08-17T07:12:47.208Z,81.90
2018-08-17T07:15:15.509Z,82.80
2018-08-17T07:17:43.784Z,78.60
2018-08-17T07:20:13.262Z,81.70
2018-08-17T07:22:41.928Z,81.30
2018-08-17T07:25:10.237Z,81.30
2018-08-17T07:27:38.577Z,81.90
2018-08-17T07:30:07.833Z,83.50
2018-08-17T07:32:36.107Z,78.10
2018-08-17T07:35:05.284Z,79.20
2018-08-17T07:37:33.553Z,78.50
2018-08-17T07:40:01.784Z,75.60
2018-08-17T07:42:30.050Z,74.10
2018-08-17T07:44:58.329Z,74.80
2018-08-17T07:47:26.592Z,76.70
2018-08-17T07:49:54.860Z,73.90
2018-08-17T07:52:23.147Z,73.00
2018-08-17T07:54:51.396Z,72.90
2018-08-17T07:57:19.682Z,74.60
2018-08-17T07:59:48.031Z,70.30
2018-08-17T08:02:16.283Z,68.80
2018-08-17T08:04:44.528Z,68.10
2018-08-17T08:07:12.809Z,69.20
2018-08-17T08:09:41.031Z,64.80
2018-08-17T08:12:09.261Z,69.50
2018-08-17T08:14:37.547Z,64.20
2018-08-17T08:17:06.029Z,63.40
2018-08-17T08:19:34.293Z,62.70
2018-08-17T08:22:02.564Z,63.40
2018-08-17T08:24:35.999Z,61.20
2018-08-17T08:27:04.560Z,61.40
2018-08-17T08:29:32.808Z,60.60
2018-08-17T08:32:01.040Z,61.20
2018-08-17T08:34:29.288Z,59.70
2018-08-17T08:36:57.524Z,57.80
2018-08-17T08:39:25.788Z,61.10
2018-08-17T08:41:54.025Z,59.90
2018-08-17T08:44:22.281Z,60.20
2018-08-17T08:46:50.533Z,59.80
2018-08-17T08:49:18.804Z,60.50
2018-08-17T08:51:47.032Z,59.20
2018-08-17T08:54:15.284Z,60.50
2018-08-17T08:56:43.530Z,59.30
2018-08-17T08:59:11.781Z,57.70
2018-08-17T09:01:40.050Z,58.70
2018-08-17T09:04:08.317Z,59.80
2018-08-17T09:06:36.581Z,55.60
2018-08-17T09:09:07.060Z,59.50
2018-08-17T09:11:35.310Z,58.20
2018-08-17T09:14:03.598Z,58.60
2018-08-17T09:16:31.880Z,60.90
2018-08-17T09:19:00.359Z,59.40
2018-08-17T09:21:28.596Z,61.80
2018-08-17T09:23:56.870Z,58.90
2018-08-17T09:26:25.108Z,57.00
2018-08-17T09:28:53.360Z,55.00
2018-08-17T09:31:21.703Z,54.50
2018-08-17T09:33:49.948Z,54.80
2018-08-17T09:36:18.208Z,52.60
2018-08-17T09:38:46.483Z,53.20
2018-08-17T09:41:14.724Z,52.70
2018-08-17T09:43:42.979Z,52.80
2018-08-17T09:46:11.209Z,51.90
2018-08-17T09:48:39.462Z,49.90
2018-08-17T09:51:07.696Z,49.20
2018-08-17T09:53:35.963Z,52.30
2018-08-17T09:56:04.209Z,49.20
2018-08-17T09:58:32.470Z,50.90
2018-08-17T10:01:06.035Z,48.90
2018-08-17T10:03:39.657Z,48.80
2018-08-17T10:06:13.176Z,51.80
2018-08-17T10:08:46.805Z,47.40
2018-08-17T10:11:15.055Z,47.50
2018-08-17T10:13:43.349Z,46.30
2018-08-17T10:16:11.621Z,47.20
2018-08-17T10:18:44.296Z,49.40
2018-08-17T10:21:13.745Z,51.40
2018-08-17T10:23:41.847Z,46.70
2018-08-17T10:26:10.093Z,50.20
2018-08-17T10:28:38.328Z,45.80
2018-08-17T10:31:06.593Z,48.40
2018-08-17T10:33:34.827Z,46.20
2018-08-17T10:36:03.110Z,48.10
2018-08-17T10:38:31.358Z,46.60
2018-08-17T10:40:59.619Z,46.30
2018-08-17T10:43:27.863Z,48.70
2018-08-17T10:45:56.178Z,47.10
2018-08-17T10:48:24.429Z,48.20
2018-08-17T10:50:55.476Z,46.20
2018-08-17T10:53:25.833Z,46.90
2018-08-17T10:55:54.132Z,46.60
2018-08-17T10:58:22.394Z,44.10
2018-08-17T11:00:50.676Z,46.40
2018-08-17T11:03:18.915Z,44.30
2018-08-17T11:05:47.191Z,44.20
2018-08-17T11:08:15.421Z,44.20
2018-08-17T11:10:43.665Z,43.30
2018-08-17T11:13:11.942Z,44.00
2018-08-17T11:15:40.228Z,44.20
2018-08-17T11:18:08.484Z,42.50
2018-08-17T11:20:36.765Z,42.50
2018-08-17T11:23:05.056Z,42.30
2018-08-17T11:25:33.335Z,42.10
2018-08-17T11:28:01.592Z,40.50
2018-08-17T11:30:29.876Z,41.60
2018-08-17T11:32:58.131Z,44.60
2018-08-17T11:35:26.391Z,44.60
2018-08-17T11:37:54.644Z,41.00
2018-08-17T11:40:22.913Z,40.30
2018-08-17T11:42:51.513Z,43.50
2018-08-17T11:45:21.793Z,41.70
2018-08-17T11:47:50.352Z,41.10
2018-08-17T11:50:19.952Z,41.20
2018-08-17T11:52:50.758Z,40.30
2018-08-17T11:55:19.437Z,38.70
2018-08-17T11:57:47.724Z,41.90
2018-08-17T12:00:16.033Z,39.40
2018-08-17T12:02:44.683Z,40.40
2018-08-17T12:05:13.008Z,40.00
2018-08-17T12:07:42.122Z,40.50
2018-08-17T12:10:10.388Z,39.10
2018-08-17T12:12:39.740Z,39.80
2018-08-17T12:15:09.753Z,39.60
2018-08-17T12:17:38.033Z,38.40
2018-08-17T12:20:06.285Z,39.80
2018-08-17T12:22:34.535Z,40.40
2018-08-17T12:25:02.906Z,40.50
2018-08-17T12:27:31.485Z,39.70
2018-08-17T12:29:59.735Z,41.10
2018-08-17T12:32:28.010Z,40.20
2018-08-17T12:34:56.235Z,39.70
2018-08-17T12:37:24.550Z,43.70
2018-08-17T12:39:52.779Z,39.10
2018-08-17T12:42:21.053Z,38.70
2018-08-17T12:44:49.300Z,40.90
2018-08-17T12:47:17.575Z,39.80
2018-08-17T12:49:45.812Z,38.70
2018-08-17T12:52:14.076Z,41.10
2018-08-17T12:54:42.336Z,39.40
2018-08-17T12:57:10.584Z,39.70
2018-08-17T12:59:38.833Z,37.00
2018-08-17T13:02:07.083Z,40.40
2018-08-17T13:04:35.310Z,38.30
2018-08-17T13:07:03.784Z,40.70
2018-08-17T13:09:32.026Z,38.60
2018-08-17T13:12:01.298Z,37.60
2018-08-17T13:14:29.781Z,36.20
2018-08-17T13:16:59.520Z,39.10
2018-08-17T13:19:27.897Z,35.90
2018-08-17T13:21:56.284Z,36.80
2018-08-17T13:24:24.540Z,37.40
2018-08-17T13:26:52.797Z,40.90
2018-08-17T13:29:21.041Z,37.30
2018-08-17T13:31:49.309Z,35.90
2018-08-17T13:34:17.556Z,36.50
2018-08-17T13:36:45.817Z,37.30
2018-08-17T13:39:14.084Z,35.30
2018-08-17T13:41:42.349Z,34.90
2018-08-17T13:44:12.043Z,37.50
2018-08-17T13:46:40.324Z,36.40
2018-08-17T13:49:08.578Z,39.90
2018-08-17T13:51:36.876Z,40.10
2018-08-17T13:54:05.212Z,40.60
2018-08-17T13:56:33.627Z,44.00
2018-08-17T13:59:01.892Z,37.70
2018-08-17T14:01:30.569Z,38.80
2018-08-17T14:03:58.791Z,38.90
2018-08-17T14:06:27.039Z,41.00
2018-08-17T14:08:55.285Z,42.20
2018-08-17T14:11:23.551Z,41.80
2018-08-17T14:13:51.808Z,41.10
2018-08-17T14:16:20.077Z,38.80
2018-08-17T14:18:48.781Z,43.70
2018-08-17T14:21:17.031Z,41.70
2018-08-17T14:23:45.312Z,39.30
2018-08-17T14:26:13.565Z,40.40
2018-08-17T14:28:41.867Z,39.60
2018-08-17T14:31:10.098Z,37.40
2018-08-17T14:33:38.346Z,46.40
2018-08-17T14:36:06.845Z,42.20
2018-08-17T14:38:36.377Z,37.70
2018-08-17T14:41:05.143Z,38.00
2018-08-17T14:43:33.863Z,40.60
2018-08-17T14:46:02.117Z,41.80
2018-08-17T14:48:30.419Z,41.00
2018-08-17T14:50:58.668Z,39.80
2018-08-17T14:53:27.044Z,44.10
2018-08-17T14:55:55.285Z,47.80
2018-08-17T14:58:23.540Z,40.90
2018-08-17T15:00:51.789Z,44.60
2018-08-17T15:03:20.060Z,41.90
2018-08-17T15:05:48.317Z,43.40
2018-08-17T15:08:16.608Z,42.60
2018-08-17T15:10:44.850Z,41.30
2018-08-17T15:13:13.176Z,43.70
2018-08-17T15:15:41.405Z,41.50
2018-08-17T15:18:09.665Z,43.10
2018-08-17T15:20:37.905Z,47.10
2018-08-17T15:23:07.032Z,40.60
2018-08-17T15:25:35.263Z,44.10
2018-08-17T15:28:03.513Z,39.90
2018-08-17T15:30:31.739Z,41.70
2018-08-17T15:33:00.009Z,41.40
2018-08-17T15:35:28.249Z,41.30
2018-08-17T15:37:56.509Z,40.20
2018-08-17T15:40:25.555Z,39.30
2018-08-17T15:42:57.960Z,40.80
2018-08-17T15:45:26.199Z,41.10
2018-08-17T15:47:54.459Z,39.20
2018-08-17T15:50:22.695Z,42.00
2018-08-17T15:52:50.966Z,41.00
2018-08-17T15:55:19.209Z,41.40
2018-08-17T15:57:47.647Z,42.30
2018-08-17T16:00:17.855Z,46.20
2018-08-17T16:02:46.120Z,45.70
2018-08-17T16:05:14.423Z,43.50
2018-08-17T16:07:42.732Z,43.20
2018-08-17T16:10:13.028Z,42.90
2018-08-17T16:12:41.279Z,42.80
2018-08-17T16:15:10.134Z,40.80
2018-08-17T16:17:38.730Z,42.50
2018-08-17T16:20:08.200Z,46.80
2018-08-17T16:22:36.436Z,41.90
2018-08-17T16:25:04.827Z,41.20
2018-08-17T16:27:33.061Z,48.10
2018-08-17T16:30:01.332Z,44.40
2018-08-17T16:32:29.565Z,43.70
2018-08-17T16:34:57.815Z,43.80
2018-08-17T16:37:26.098Z,43.20
2018-08-17T16:39:55.253Z,44.00
2018-08-17T16:42:28.756Z,43.90
2018-08-17T16:44:57.144Z,45.80
2018-08-17T16:47:25.432Z,48.10
2018-08-17T16:49:53.684Z,49.20
2018-08-17T16:52:21.933Z,51.30
2018-08-17T16:54:50.213Z,51.60
2018-08-17T16:57:18.454Z,54.60
2018-08-17T16:59:46.731Z,56.30
2018-08-17T17:02:14.969Z,57.50
2018-08-17T17:04:43.770Z,60.60
2018-08-17T17:07:12.017Z,62.80
2018-08-17T17:09:40.273Z,60.70
2018-08-17T17:12:13.940Z,63.80
2018-08-17T17:14:42.579Z,64.80
2018-08-17T17:17:10.833Z,63.90
2018-08-17T17:19:39.091Z,63.30
2018-08-17T17:22:07.344Z,64.90
2018-08-17T17:24:35.622Z,65.80
2018-08-17T17:27:03.897Z,66.10
2018-08-17T17:29:33.007Z,66.90
2018-08-17T17:32:01.244Z,66.40
2018-08-17T17:34:29.512Z,66.10
2018-08-17T17:36:57.957Z,67.10
2018-08-17T17:39:26.228Z,66.50
2018-08-17T17:41:54.479Z,69.60
2018-08-17T17:44:22.739Z,69.20
2018-08-17T17:46:51.016Z,72.70
2018-08-17T17:49:19.332Z,74.80
2018-08-17T17:51:47.595Z,75.30
2018-08-17T17:54:30.811Z,73.80
2018-08-17T17:57:04.584Z,75.00
2018-08-17T17:59:33.058Z,71.40
2018-08-17T18:02:01.333Z,69.20
2018-08-17T18:04:30.745Z,71.50
2018-08-17T18:06:59.415Z,72.20
2018-08-17T18:09:27.716Z,73.00
2018-08-17T18:11:55.976Z,75.10
2018-08-17T18:14:24.229Z,75.60
2018-08-17T18:16:52.463Z,75.30
2018-08-17T18:19:20.784Z,73.30
2018-08-17T18:21:49.101Z,71.70
2018-08-17T18:24:17.355Z,74.30
2018-08-17T18:26:47.892Z,71.80
2018-08-17T18:29:16.200Z,71.90
2018-08-17T18:31:44.442Z,70.70
2018-08-17T18:34:12.770Z,72.70
2018-08-17T18:36:41.225Z,73.60
2018-08-17T18:39:11.953Z,73.10
2018-08-17T18:41:40.244Z,73.40
2018-08-17T18:44:08.497Z,73.40
2018-08-17T18:46:37.102Z,74.00
2018-08-17T18:49:05.475Z,73.70
2018-08-17T18:51:34.288Z,73.60
2018-08-17T18:54:02.512Z,72.80
2018-08-17T18:56:30.759Z,72.30
2018-08-17T18:58:58.997Z,71.90
2018-08-17T19:01:27.256Z,69.60
2018-08-17T19:03:55.487Z,66.00
2018-08-17T19:06:23.734Z,66.10
2018-08-17T19:08:51.964Z,66.60
2018-08-17T19:11:20.249Z,66.60
2018-08-17T19:13:48.473Z,67.30
2018-08-17T19:16:16.806Z,67.90
2018-08-17T19:18:44.991Z,68.50
2018-08-17T19:21:14.253Z,67.40
2018-08-17T19:23:42.495Z,66.80
2018-08-17T19:26:11.125Z,66.60
2018-08-17T19:28:39.450Z,67.70
2018-08-17T19:31:07.815Z,70.30
2018-08-17T19:33:36.052Z,72.60
2018-08-17T19:36:04.695Z,73.80
2018-08-17T19:38:38.887Z,74.90
2018-08-17T19:41:07.140Z,76.80
2018-08-17T19:43:35.364Z,78.90
2018-08-17T19:46:03.696Z,80.50
2018-08-17T19:48:31.891Z,81.40
2018-08-17T19:51:00.159Z,82.70
2018-08-17T19:53:28.708Z,84.10
2018-08-17T19:55:56.964Z,84.10
2018-08-17T19:58:25.294Z,85.10
2018-08-17T20:00:53.462Z,85.50
2018-08-17T20:03:21.685Z,86.00
2018-08-17T20:05:49.924Z,86.50
2018-08-17T20:08:18.166Z,87.00
2018-08-17T20:10:46.463Z,85.70
2018-08-17T20:13:14.749Z,84.60
2018-08-17T20:15:43.012Z,84.80
2018-08-17T20:18:11.255Z,85.00
2018-08-17T20:20:39.516Z,85.20
